Cottonwood, Idaho
Current Conditions -  °F | °C
As of 5:35 AM on Saturday 25 Oct 2014 (Local Time) from KGIC Reporting Station
Overcast Overcast  
Wind Chill: 41°   Ceiling: 100
Heat Index: 41°   Visibility: 0.25mi
Dew Point: 40°   Wind: 0mph
Humidity: 95%   Direction: NA
Pressure: 29.84"   Gusts: NA
Location:  46.05°N, 116.35°W
Report Text: KGIC 251235Z AUTO 00000KT 1/4SM OVC001 05/04 A2984 RMK AO1 T00520044
Loading
Personal Weather Stations






























Interactive Weather Map
Tropical Storm Tracking
New forecast layout! Learn more

10-Day Weather Forecast

Advertisements
Track Severe Weather on mobile